Berlin Schoenefeld, Germany

11:39 AM CEST on October 20, 2014 (GMT +0200)
Schonefeld | Change Station
CLOSE
Current Station
Airport
Location: Berlin Schoenefeld,
Elevation: 157 ft
Nearby Weather Stations

Elev 157 ft 52.38 °N, 13.53 °E | Updated 19 minutes ago

Mostly Cloudy
Mostly Cloudy
57 °F
Feels Like 57 °F
N
17
Wind Variable Wind from WSW

Today
High -- | Low -- °F
--% Chance of Precip.
Yesterday
High -- | Low -- °F
Precip. -- in
7:39 AM 6:00 PM
Waning Crescent, 12% visible
Pressure 29.92 in
Visibility 6.2 miles
Clouds Few 2700 ft
Mostly Cloudy 5800 ft
Dew Point 52 °F
Humidity 82%
Rainfall 0.00 in
Snow Depth Not available.
UV 1 out of 12
Pollen Not available.
Air Quality Not available.
Flu Activity Not available.
METAR EDDB 200920Z 24015KT 9999 FEW027 BKN058 14/11 Q1013 BECMG 24015G25KT

More Conditions Fewer Conditions

Pressure 29.92 in
Visibility 6.2 miles
Clouds Few 2700 ft
Mostly Cloudy 5800 ft
Dew Point 52 °F
Humidity 82%
Rainfall 0.00 in
Snow Depth Not available.
UV 1 out of 12
Pollen Not available.
Air Quality Not available.
Flu Activity Not available.
METAR EDDB 200920Z 24015KT 9999 FEW027 BKN058 14/11 Q1013 BECMG 24015G25KT

More Conditions Fewer Conditions

10-Day Weather Forecast

Almanac

Astronomy

Oct. 20, 2014 Rise Set
Actual Time 7:39 AM CEST 6:00 PM CEST
Civil Twilight 7:04 AM CEST 6:35 PM CEST
Nautical Twilight 6:25 AM CEST 7:15 PM CEST
Astronomical Twilight 5:45 AM CEST 7:54 PM CEST
Moon 3:46 AM CEST 4:36 PM CEST
Length of Visible Light 11h 30m
Length of Day
10h 21m
Tomorrow will be 3m 54s shorter.
Waning Crescent, 12% of the Moon is Illuminated
Today
Waning Crescent
Oct 23
New
Oct 30
First Quarter
Nov 6
Full
Nov 14
Last Quarter

Yesterday's Extremes

Country Highs Country Lows

Community

WunderPhotos

Upload Photos

1,763,325 photos uploaded!

Nearby

Snow Depth

Not available.

Earthquake Activity

City Distance Mag. Time & Date
No recent earthquake activity has been reported nearby.
Minimum magnitude displayed is 2.5.

Coastal Water Temperatures

Place Temperature
No Stations Reporting

Nearby Weather Stations